sensor_id;sensor_type;location;lat;lon;timestamp;P1;durP1;ratioP1;P2;durP2;ratioP2
3789;SDS011;1910;49.042;9.028;2023-07-24T00:00:25;12.27;;;7.17;;
3789;SDS011;1910;49.042;9.028;2023-07-24T00:02:50;22.00;;;7.33;;
3789;SDS011;1910;49.042;9.028;2023-07-24T00:05:18;8.40;;;4.43;;
3789;SDS011;1910;49.042;9.028;2023-07-24T00:07:44;9.40;;;5.90;;
3789;SDS011;1910;49.042;9.028;2023-07-24T00:10:09;11.00;;;6.60;;
3789;SDS011;1910;49.042;9.028;2023-07-24T00:12:35;9.03;;;5.93;;
3789;SDS011;1910;49.042;9.028;2023-07-24T00:15:00;14.10;;;5.70;;
3789;SDS011;1910;49.042;9.028;2023-07-24T00:17:26;9.40;;;5.77;;
3789;SDS011;1910;49.042;9.028;2023-07-24T00:19:51;10.77;;;6.27;;
3789;SDS011;1910;49.042;9.028;2023-07-24T00:22:17;11.53;;;7.17;;
3789;SDS011;1910;49.042;9.028;2023-07-24T00:24:42;13.90;;;7.40;;
3789;SDS011;1910;49.042;9.028;2023-07-24T00:27:08;15.37;;;6.80;;
3789;SDS011;1910;49.042;9.028;2023-07-24T00:29:33;14.57;;;7.13;;
3789;SDS011;1910;49.042;9.028;2023-07-24T00:31:59;13.63;;;7.03;;
3789;SDS011;1910;49.042;9.028;2023-07-24T00:34:24;13.73;;;7.13;;
3789;SDS011;1910;49.042;9.028;2023-07-24T00:36:50;12.50;;;6.20;;
3789;SDS011;1910;49.042;9.028;2023-07-24T00:39:16;9.63;;;6.43;;
3789;SDS011;1910;49.042;9.028;2023-07-24T00:41:42;13.00;;;7.60;;
3789;SDS011;1910;49.042;9.028;2023-07-24T00:44:07;11.87;;;7.03;;
3789;SDS011;1910;49.042;9.028;2023-07-24T00:46:33;11.27;;;6.57;;
3789;SDS011;1910;49.042;9.028;2023-07-24T00:49:00;10.93;;;6.80;;
3789;SDS011;1910;49.042;9.028;2023-07-24T00:51:27;10.87;;;6.90;;
3789;SDS011;1910;49.042;9.028;2023-07-24T00:53:56;11.00;;;8.07;;
3789;SDS011;1910;49.042;9.028;2023-07-24T00:56:24;17.20;;;8.20;;
3789;SDS011;1910;49.042;9.028;2023-07-24T00:58:51;13.33;;;6.70;;
3789;SDS011;1910;49.042;9.028;2023-07-24T01:01:17;11.37;;;6.80;;
3789;SDS011;1910;49.042;9.028;2023-07-24T01:03:43;11.77;;;7.63;;
3789;SDS011;1910;49.042;9.028;2023-07-24T01:06:09;12.30;;;8.50;;
3789;SDS011;1910;49.042;9.028;2023-07-24T01:08:35;11.70;;;6.50;;
3789;SDS011;1910;49.042;9.028;2023-07-24T01:11:20;14.70;;;8.40;;
3789;SDS011;1910;49.042;9.028;2023-07-24T01:13:52;12.83;;;7.60;;
3789;SDS011;1910;49.042;9.028;2023-07-24T01:16:32;12.10;;;7.63;;
3789;SDS011;1910;49.042;9.028;2023-07-24T01:19:08;14.30;;;9.10;;
3789;SDS011;1910;49.042;9.028;2023-07-24T01:21:44;11.87;;;7.43;;
3789;SDS011;1910;49.042;9.028;2023-07-24T01:27:24;14.53;;;8.40;;
3789;SDS011;1910;49.042;9.028;2023-07-24T01:29:50;13.27;;;8.10;;
3789;SDS011;1910;49.042;9.028;2023-07-24T01:32:16;14.50;;;9.27;;
3789;SDS011;1910;49.042;9.028;2023-07-24T01:34:42;11.77;;;8.27;;
3789;SDS011;1910;49.042;9.028;2023-07-24T01:37:07;11.33;;;7.43;;
3789;SDS011;1910;49.042;9.028;2023-07-24T01:39:34;16.00;;;8.50;;
3789;SDS011;1910;49.042;9.028;2023-07-24T01:42:00;18.53;;;8.90;;
3789;SDS011;1910;49.042;9.028;2023-07-24T01:44:27;12.90;;;7.93;;
3789;SDS011;1910;49.042;9.028;2023-07-24T01:46:52;12.67;;;8.50;;
3789;SDS011;1910;49.042;9.028;2023-07-24T01:49:18;12.97;;;9.00;;
3789;SDS011;1910;49.042;9.028;2023-07-24T01:51:43;15.43;;;8.90;;
3789;SDS011;1910;49.042;9.028;2023-07-24T01:54:09;14.40;;;9.20;;
3789;SDS011;1910;49.042;9.028;2023-07-24T01:56:35;11.23;;;7.43;;
3789;SDS011;1910;49.042;9.028;2023-07-24T01:59:02;12.57;;;7.43;;
3789;SDS011;1910;49.042;9.028;2023-07-24T02:01:27;10.77;;;7.63;;
3789;SDS011;1910;49.042;9.028;2023-07-24T02:03:53;11.80;;;8.13;;
3789;SDS011;1910;49.042;9.028;2023-07-24T02:06:19;11.43;;;7.93;;
3789;SDS011;1910;49.042;9.028;2023-07-24T02:08:44;12.90;;;7.90;;
3789;SDS011;1910;49.042;9.028;2023-07-24T02:11:14;23.00;;;8.57;;
3789;SDS011;1910;49.042;9.028;2023-07-24T02:13:40;14.03;;;8.70;;
3789;SDS011;1910;49.042;9.028;2023-07-24T02:16:08;15.10;;;8.57;;
3789;SDS011;1910;49.042;9.028;2023-07-24T02:18:33;12.57;;;8.47;;
3789;SDS011;1910;49.042;9.028;2023-07-24T02:20:59;20.40;;;9.93;;
3789;SDS011;1910;49.042;9.028;2023-07-24T02:23:24;17.10;;;8.70;;
3789;SDS011;1910;49.042;9.028;2023-07-24T02:25:50;14.33;;;8.03;;
3789;SDS011;1910;49.042;9.028;2023-07-24T02:28:17;12.00;;;7.97;;
3789;SDS011;1910;49.042;9.028;2023-07-24T02:30:42;16.27;;;8.73;;
3789;SDS011;1910;49.042;9.028;2023-07-24T02:33:08;13.93;;;9.03;;
3789;SDS011;1910;49.042;9.028;2023-07-24T02:35:40;15.80;;;7.70;;
3789;SDS011;1910;49.042;9.028;2023-07-24T02:38:06;14.57;;;9.03;;
3789;SDS011;1910;49.042;9.028;2023-07-24T02:40:32;14.77;;;7.80;;
3789;SDS011;1910;49.042;9.028;2023-07-24T02:42:58;14.40;;;9.27;;
3789;SDS011;1910;49.042;9.028;2023-07-24T02:45:23;12.00;;;7.97;;
3789;SDS011;1910;49.042;9.028;2023-07-24T02:47:49;13.97;;;7.53;;
3789;SDS011;1910;49.042;9.028;2023-07-24T02:50:14;14.60;;;7.93;;
3789;SDS011;1910;49.042;9.028;2023-07-24T02:52:40;12.80;;;8.07;;
3789;SDS011;1910;49.042;9.028;2023-07-24T02:55:05;14.23;;;7.87;;
3789;SDS011;1910;49.042;9.028;2023-07-24T02:57:31;12.80;;;7.43;;
3789;SDS011;1910;49.042;9.028;2023-07-24T02:59:57;17.10;;;8.93;;
3789;SDS011;1910;49.042;9.028;2023-07-24T03:02:22;13.53;;;7.60;;
3789;SDS011;1910;49.042;9.028;2023-07-24T03:04:48;14.00;;;8.47;;
3789;SDS011;1910;49.042;9.028;2023-07-24T03:07:13;12.10;;;8.30;;
3789;SDS011;1910;49.042;9.028;2023-07-24T03:09:39;16.70;;;9.30;;
3789;SDS011;1910;49.042;9.028;2023-07-24T03:12:05;15.03;;;7.70;;
3789;SDS011;1910;49.042;9.028;2023-07-24T03:14:31;12.53;;;7.70;;
3789;SDS011;1910;49.042;9.028;2023-07-24T03:16:56;14.77;;;8.07;;
3789;SDS011;1910;49.042;9.028;2023-07-24T03:19:22;11.50;;;6.83;;
3789;SDS011;1910;49.042;9.028;2023-07-24T03:21:47;12.63;;;7.83;;
3789;SDS011;1910;49.042;9.028;2023-07-24T03:24:13;11.70;;;8.00;;
3789;SDS011;1910;49.042;9.028;2023-07-24T03:26:38;12.30;;;7.70;;
3789;SDS011;1910;49.042;9.028;2023-07-24T03:29:04;11.30;;;7.33;;
3789;SDS011;1910;49.042;9.028;2023-07-24T03:31:30;20.80;;;9.20;;
3789;SDS011;1910;49.042;9.028;2023-07-24T03:33:55;15.00;;;7.90;;
3789;SDS011;1910;49.042;9.028;2023-07-24T03:36:21;13.03;;;8.77;;
3789;SDS011;1910;49.042;9.028;2023-07-24T03:38:46;13.47;;;7.80;;
3789;SDS011;1910;49.042;9.028;2023-07-24T03:41:12;14.17;;;8.53;;
3789;SDS011;1910;49.042;9.028;2023-07-24T03:43:37;14.83;;;8.07;;
3789;SDS011;1910;49.042;9.028;2023-07-24T03:46:03;13.90;;;7.33;;
3789;SDS011;1910;49.042;9.028;2023-07-24T03:48:28;12.50;;;7.07;;
3789;SDS011;1910;49.042;9.028;2023-07-24T03:50:58;12.03;;;7.50;;
3789;SDS011;1910;49.042;9.028;2023-07-24T03:53:27;13.80;;;8.23;;
3789;SDS011;1910;49.042;9.028;2023-07-24T03:55:53;14.00;;;7.17;;
3789;SDS011;1910;49.042;9.028;2023-07-24T03:58:19;11.90;;;7.80;;
3789;SDS011;1910;49.042;9.028;2023-07-24T04:00:45;16.27;;;7.73;;
3789;SDS011;1910;49.042;9.028;2023-07-24T04:03:11;9.20;;;6.30;;
3789;SDS011;1910;49.042;9.028;2023-07-24T04:05:37;13.00;;;6.30;;
3789;SDS011;1910;49.042;9.028;2023-07-24T04:08:02;15.10;;;8.63;;
3789;SDS011;1910;49.042;9.028;2023-07-24T04:10:28;13.17;;;6.97;;
3789;SDS011;1910;49.042;9.028;2023-07-24T04:12:55;13.80;;;8.33;;
3789;SDS011;1910;49.042;9.028;2023-07-24T04:15:21;13.77;;;7.27;;
3789;SDS011;1910;49.042;9.028;2023-07-24T04:17:47;11.47;;;7.83;;
3789;SDS011;1910;49.042;9.028;2023-07-24T04:20:13;15.47;;;7.23;;
3789;SDS011;1910;49.042;9.028;2023-07-24T04:22:38;16.47;;;8.70;;
3789;SDS011;1910;49.042;9.028;2023-07-24T04:25:04;15.17;;;7.77;;
3789;SDS011;1910;49.042;9.028;2023-07-24T04:27:30;11.87;;;8.20;;
3789;SDS011;1910;49.042;9.028;2023-07-24T04:29:56;10.93;;;7.00;;
3789;SDS011;1910;49.042;9.028;2023-07-24T04:32:21;11.83;;;7.50;;
3789;SDS011;1910;49.042;9.028;2023-07-24T04:34:47;12.50;;;7.33;;
3789;SDS011;1910;49.042;9.028;2023-07-24T04:37:12;15.33;;;8.97;;
3789;SDS011;1910;49.042;9.028;2023-07-24T04:39:38;12.47;;;6.90;;
3789;SDS011;1910;49.042;9.028;2023-07-24T04:42:04;11.17;;;7.30;;
3789;SDS011;1910;49.042;9.028;2023-07-24T04:44:30;12.77;;;7.30;;
3789;SDS011;1910;49.042;9.028;2023-07-24T04:46:56;16.10;;;7.77;;
3789;SDS011;1910;49.042;9.028;2023-07-24T04:49:23;14.43;;;7.87;;
3789;SDS011;1910;49.042;9.028;2023-07-24T04:51:49;13.90;;;7.67;;
3789;SDS011;1910;49.042;9.028;2023-07-24T04:54:15;13.00;;;7.80;;
3789;SDS011;1910;49.042;9.028;2023-07-24T04:56:40;13.13;;;8.80;;
3789;SDS011;1910;49.042;9.028;2023-07-24T04:59:06;13.33;;;7.67;;
3789;SDS011;1910;49.042;9.028;2023-07-24T05:01:32;14.47;;;7.33;;
3789;SDS011;1910;49.042;9.028;2023-07-24T05:03:57;20.40;;;8.50;;
3789;SDS011;1910;49.042;9.028;2023-07-24T05:06:23;14.60;;;7.60;;
3789;SDS011;1910;49.042;9.028;2023-07-24T05:08:48;17.60;;;7.90;;
3789;SDS011;1910;49.042;9.028;2023-07-24T05:11:14;15.70;;;7.60;;
3789;SDS011;1910;49.042;9.028;2023-07-24T05:13:39;16.40;;;8.57;;
3789;SDS011;1910;49.042;9.028;2023-07-24T05:16:05;11.60;;;6.43;;
3789;SDS011;1910;49.042;9.028;2023-07-24T05:18:30;16.60;;;9.27;;
3789;SDS011;1910;49.042;9.028;2023-07-24T05:20:56;13.87;;;9.37;;
3789;SDS011;1910;49.042;9.028;2023-07-24T05:23:21;16.20;;;8.80;;
3789;SDS011;1910;49.042;9.028;2023-07-24T05:25:47;15.93;;;8.57;;
3789;SDS011;1910;49.042;9.028;2023-07-24T05:28:20;11.33;;;7.97;;
3789;SDS011;1910;49.042;9.028;2023-07-24T05:30:46;16.80;;;8.40;;
3789;SDS011;1910;49.042;9.028;2023-07-24T05:33:11;16.10;;;8.93;;
3789;SDS011;1910;49.042;9.028;2023-07-24T05:35:37;15.90;;;7.70;;
3789;SDS011;1910;49.042;9.028;2023-07-24T05:38:02;17.67;;;9.07;;
3789;SDS011;1910;49.042;9.028;2023-07-24T05:40:28;19.80;;;8.80;;
3789;SDS011;1910;49.042;9.028;2023-07-24T05:42:54;15.77;;;7.90;;
3789;SDS011;1910;49.042;9.028;2023-07-24T05:45:19;9.47;;;6.30;;
3789;SDS011;1910;49.042;9.028;2023-07-24T05:47:45;14.30;;;7.23;;
3789;SDS011;1910;49.042;9.028;2023-07-24T05:50:10;11.93;;;7.20;;
3789;SDS011;1910;49.042;9.028;2023-07-24T05:52:38;12.07;;;6.70;;
3789;SDS011;1910;49.042;9.028;2023-07-24T05:55:03;11.53;;;6.77;;
3789;SDS011;1910;49.042;9.028;2023-07-24T05:57:29;12.10;;;6.53;;
3789;SDS011;1910;49.042;9.028;2023-07-24T05:59:55;11.70;;;6.97;;
3789;SDS011;1910;49.042;9.028;2023-07-24T06:02:21;9.33;;;6.13;;
3789;SDS011;1910;49.042;9.028;2023-07-24T06:04:46;10.27;;;6.70;;
3789;SDS011;1910;49.042;9.028;2023-07-24T06:07:12;20.90;;;7.33;;
3789;SDS011;1910;49.042;9.028;2023-07-24T06:09:37;13.43;;;5.30;;
3789;SDS011;1910;49.042;9.028;2023-07-24T06:12:04;14.37;;;7.00;;
3789;SDS011;1910;49.042;9.028;2023-07-24T06:14:30;12.87;;;7.30;;
3789;SDS011;1910;49.042;9.028;2023-07-24T06:16:55;13.00;;;7.07;;
3789;SDS011;1910;49.042;9.028;2023-07-24T06:19:21;12.23;;;7.43;;
3789;SDS011;1910;49.042;9.028;2023-07-24T06:21:46;10.80;;;6.90;;
3789;SDS011;1910;49.042;9.028;2023-07-24T06:24:12;9.63;;;7.10;;
3789;SDS011;1910;49.042;9.028;2023-07-24T06:26:38;12.13;;;7.57;;
3789;SDS011;1910;49.042;9.028;2023-07-24T06:29:04;11.50;;;6.93;;
3789;SDS011;1910;49.042;9.028;2023-07-24T06:31:30;12.57;;;7.80;;
3789;SDS011;1910;49.042;9.028;2023-07-24T06:33:55;17.13;;;7.50;;
3789;SDS011;1910;49.042;9.028;2023-07-24T06:36:21;11.57;;;6.80;;
3789;SDS011;1910;49.042;9.028;2023-07-24T06:38:46;12.07;;;7.40;;
3789;SDS011;1910;49.042;9.028;2023-07-24T06:41:12;14.20;;;7.70;;
3789;SDS011;1910;49.042;9.028;2023-07-24T06:43:41;13.97;;;7.67;;
3789;SDS011;1910;49.042;9.028;2023-07-24T06:46:07;12.57;;;8.27;;
3789;SDS011;1910;49.042;9.028;2023-07-24T06:48:33;14.10;;;8.47;;
3789;SDS011;1910;49.042;9.028;2023-07-24T06:50:58;14.10;;;7.13;;
3789;SDS011;1910;49.042;9.028;2023-07-24T06:53:24;17.77;;;8.10;;
3789;SDS011;1910;49.042;9.028;2023-07-24T06:55:49;13.87;;;7.90;;
3789;SDS011;1910;49.042;9.028;2023-07-24T06:58:15;12.47;;;7.53;;
3789;SDS011;1910;49.042;9.028;2023-07-24T07:00:40;14.30;;;8.20;;
3789;SDS011;1910;49.042;9.028;2023-07-24T07:03:06;14.00;;;8.47;;
3789;SDS011;1910;49.042;9.028;2023-07-24T07:05:32;13.07;;;8.80;;
3789;SDS011;1910;49.042;9.028;2023-07-24T07:07:57;19.10;;;8.33;;
3789;SDS011;1910;49.042;9.028;2023-07-24T07:10:23;11.33;;;9.17;;
3789;SDS011;1910;49.042;9.028;2023-07-24T07:12:50;16.37;;;8.30;;
3789;SDS011;1910;49.042;9.028;2023-07-24T07:15:16;20.17;;;9.20;;
3789;SDS011;1910;49.042;9.028;2023-07-24T07:17:41;13.20;;;7.70;;
3789;SDS011;1910;49.042;9.028;2023-07-24T07:20:07;16.30;;;8.90;;
3789;SDS011;1910;49.042;9.028;2023-07-24T07:22:33;13.97;;;8.90;;
3789;SDS011;1910;49.042;9.028;2023-07-24T07:24:58;14.80;;;8.67;;
3789;SDS011;1910;49.042;9.028;2023-07-24T07:27:24;13.70;;;8.20;;
3789;SDS011;1910;49.042;9.028;2023-07-24T07:29:49;13.53;;;8.57;;
3789;SDS011;1910;49.042;9.028;2023-07-24T07:32:15;12.30;;;8.80;;
3789;SDS011;1910;49.042;9.028;2023-07-24T07:34:40;18.90;;;8.93;;
3789;SDS011;1910;49.042;9.028;2023-07-24T07:37:06;13.57;;;8.57;;
3789;SDS011;1910;49.042;9.028;2023-07-24T07:39:32;13.70;;;8.60;;
3789;SDS011;1910;49.042;9.028;2023-07-24T07:41:57;12.63;;;7.47;;
3789;SDS011;1910;49.042;9.028;2023-07-24T07:44:23;16.57;;;8.87;;
3789;SDS011;1910;49.042;9.028;2023-07-24T07:46:49;16.80;;;8.90;;
3789;SDS011;1910;49.042;9.028;2023-07-24T07:49:14;15.40;;;7.83;;
3789;SDS011;1910;49.042;9.028;2023-07-24T07:51:40;13.53;;;8.00;;
3789;SDS011;1910;49.042;9.028;2023-07-24T07:54:06;14.10;;;8.77;;
3789;SDS011;1910;49.042;9.028;2023-07-24T07:56:31;13.07;;;8.27;;
3789;SDS011;1910;49.042;9.028;2023-07-24T07:58:57;19.17;;;8.57;;
3789;SDS011;1910;49.042;9.028;2023-07-24T08:01:22;10.37;;;5.00;;
3789;SDS011;1910;49.042;9.028;2023-07-24T08:03:48;8.67;;;4.23;;
3789;SDS011;1910;49.042;9.028;2023-07-24T08:06:13;10.80;;;6.20;;
3789;SDS011;1910;49.042;9.028;2023-07-24T08:08:39;10.93;;;7.13;;
3789;SDS011;1910;49.042;9.028;2023-07-24T08:11:05;15.57;;;8.47;;
3789;SDS011;1910;49.042;9.028;2023-07-24T08:13:31;11.00;;;7.17;;
3789;SDS011;1910;49.042;9.028;2023-07-24T08:15:57;11.53;;;7.80;;
3789;SDS011;1910;49.042;9.028;2023-07-24T08:18:24;15.33;;;9.37;;
3789;SDS011;1910;49.042;9.028;2023-07-24T08:20:52;13.33;;;8.30;;
3789;SDS011;1910;49.042;9.028;2023-07-24T08:23:18;12.03;;;7.63;;
3789;SDS011;1910;49.042;9.028;2023-07-24T08:25:53;15.53;;;8.30;;
3789;SDS011;1910;49.042;9.028;2023-07-24T08:28:19;14.23;;;7.77;;
3789;SDS011;1910;49.042;9.028;2023-07-24T08:30:45;16.07;;;8.67;;
3789;SDS011;1910;49.042;9.028;2023-07-24T08:33:12;13.90;;;8.30;;
3789;SDS011;1910;49.042;9.028;2023-07-24T08:35:38;11.47;;;7.87;;
3789;SDS011;1910;49.042;9.028;2023-07-24T08:38:03;11.83;;;8.67;;
3789;SDS011;1910;49.042;9.028;2023-07-24T08:40:29;14.80;;;8.93;;
3789;SDS011;1910;49.042;9.028;2023-07-24T08:42:54;16.70;;;9.50;;
3789;SDS011;1910;49.042;9.028;2023-07-24T08:45:20;16.93;;;9.77;;
3789;SDS011;1910;49.042;9.028;2023-07-24T08:47:48;12.90;;;9.00;;
3789;SDS011;1910;49.042;9.028;2023-07-24T08:50:14;14.23;;;9.53;;
3789;SDS011;1910;49.042;9.028;2023-07-24T08:52:41;16.00;;;8.77;;
3789;SDS011;1910;49.042;9.028;2023-07-24T08:55:08;13.77;;;9.50;;
3789;SDS011;1910;49.042;9.028;2023-07-24T08:57:34;14.23;;;9.70;;
3789;SDS011;1910;49.042;9.028;2023-07-24T09:00:00;16.03;;;9.43;;
3789;SDS011;1910;49.042;9.028;2023-07-24T09:02:29;20.10;;;10.60;;
3789;SDS011;1910;49.042;9.028;2023-07-24T09:04:55;17.53;;;8.97;;
3789;SDS011;1910;49.042;9.028;2023-07-24T09:07:21;17.53;;;10.27;;
3789;SDS011;1910;49.042;9.028;2023-07-24T09:09:47;18.67;;;9.87;;
3789;SDS011;1910;49.042;9.028;2023-07-24T09:12:15;12.93;;;8.30;;
3789;SDS011;1910;49.042;9.028;2023-07-24T09:14:41;14.40;;;9.73;;
3789;SDS011;1910;49.042;9.028;2023-07-24T09:17:08;17.50;;;10.50;;
3789;SDS011;1910;49.042;9.028;2023-07-24T09:19:35;19.73;;;9.93;;
3789;SDS011;1910;49.042;9.028;2023-07-24T09:22:10;12.80;;;8.63;;
3789;SDS011;1910;49.042;9.028;2023-07-24T09:24:48;17.50;;;9.40;;
3789;SDS011;1910;49.042;9.028;2023-07-24T09:27:18;15.13;;;9.80;;
3789;SDS011;1910;49.042;9.028;2023-07-24T09:29:43;28.23;;;17.17;;
3789;SDS011;1910;49.042;9.028;2023-07-24T09:32:19;17.83;;;12.80;;
3789;SDS011;1910;49.042;9.028;2023-07-24T09:34:46;13.70;;;8.90;;
3789;SDS011;1910;49.042;9.028;2023-07-24T09:37:22;12.30;;;8.70;;
3789;SDS011;1910;49.042;9.028;2023-07-24T09:39:48;15.10;;;9.30;;
3789;SDS011;1910;49.042;9.028;2023-07-24T09:42:14;16.10;;;9.50;;
3789;SDS011;1910;49.042;9.028;2023-07-24T09:44:39;13.50;;;10.20;;
3789;SDS011;1910;49.042;9.028;2023-07-24T09:47:05;12.87;;;9.53;;
3789;SDS011;1910;49.042;9.028;2023-07-24T09:49:31;17.27;;;9.80;;
3789;SDS011;1910;49.042;9.028;2023-07-24T09:51:57;14.77;;;9.17;;
3789;SDS011;1910;49.042;9.028;2023-07-24T09:54:30;15.57;;;8.97;;
3789;SDS011;1910;49.042;9.028;2023-07-24T09:57:05;17.53;;;9.07;;
3789;SDS011;1910;49.042;9.028;2023-07-24T09:59:33;17.83;;;10.80;;
3789;SDS011;1910;49.042;9.028;2023-07-24T10:02:00;16.43;;;9.90;;
3789;SDS011;1910;49.042;9.028;2023-07-24T10:04:26;14.00;;;10.00;;
3789;SDS011;1910;49.042;9.028;2023-07-24T10:06:52;15.60;;;9.50;;
3789;SDS011;1910;49.042;9.028;2023-07-24T10:09:19;15.50;;;9.23;;
3789;SDS011;1910;49.042;9.028;2023-07-24T10:11:47;17.17;;;9.80;;
3789;SDS011;1910;49.042;9.028;2023-07-24T10:14:13;16.13;;;10.70;;
3789;SDS011;1910;49.042;9.028;2023-07-24T10:16:39;14.37;;;9.53;;
3789;SDS011;1910;49.042;9.028;2023-07-24T10:19:15;12.67;;;8.20;;
3789;SDS011;1910;49.042;9.028;2023-07-24T10:21:49;14.13;;;9.17;;
3789;SDS011;1910;49.042;9.028;2023-07-24T10:24:16;18.70;;;10.10;;
3789;SDS011;1910;49.042;9.028;2023-07-24T10:26:42;16.37;;;9.97;;
3789;SDS011;1910;49.042;9.028;2023-07-24T10:29:11;13.33;;;8.37;;
3789;SDS011;1910;49.042;9.028;2023-07-24T10:31:38;16.60;;;9.43;;
3789;SDS011;1910;49.042;9.028;2023-07-24T10:34:06;13.47;;;9.67;;
3789;SDS011;1910;49.042;9.028;2023-07-24T10:36:35;18.00;;;10.77;;
3789;SDS011;1910;49.042;9.028;2023-07-24T10:39:01;12.83;;;9.73;;
3789;SDS011;1910;49.042;9.028;2023-07-24T10:41:34;20.87;;;10.33;;
3789;SDS011;1910;49.042;9.028;2023-07-24T10:44:00;13.53;;;9.20;;
3789;SDS011;1910;49.042;9.028;2023-07-24T10:46:35;14.23;;;8.43;;
3789;SDS011;1910;49.042;9.028;2023-07-24T10:49:02;16.27;;;9.23;;
3789;SDS011;1910;49.042;9.028;2023-07-24T10:51:31;16.50;;;9.57;;
3789;SDS011;1910;49.042;9.028;2023-07-24T10:54:02;18.40;;;10.23;;
3789;SDS011;1910;49.042;9.028;2023-07-24T10:56:29;12.27;;;8.63;;
3789;SDS011;1910;49.042;9.028;2023-07-24T10:58:55;16.90;;;8.63;;
3789;SDS011;1910;49.042;9.028;2023-07-24T11:01:21;13.77;;;9.13;;
3789;SDS011;1910;49.042;9.028;2023-07-24T11:03:48;15.37;;;8.37;;
3789;SDS011;1910;49.042;9.028;2023-07-24T11:06:15;16.57;;;9.80;;
3789;SDS011;1910;49.042;9.028;2023-07-24T11:08:42;14.27;;;9.40;;
3789;SDS011;1910;49.042;9.028;2023-07-24T11:11:08;14.20;;;9.40;;
3789;SDS011;1910;49.042;9.028;2023-07-24T11:13:34;17.77;;;10.90;;
3789;SDS011;1910;49.042;9.028;2023-07-24T11:16:06;17.70;;;10.17;;
3789;SDS011;1910;49.042;9.028;2023-07-24T11:18:43;12.93;;;9.07;;
3789;SDS011;1910;49.042;9.028;2023-07-24T11:21:13;15.87;;;9.43;;
3789;SDS011;1910;49.042;9.028;2023-07-24T11:23:51;16.70;;;9.87;;
3789;SDS011;1910;49.042;9.028;2023-07-24T11:26:18;15.37;;;9.83;;
3789;SDS011;1910;49.042;9.028;2023-07-24T11:28:49;12.60;;;8.83;;
3789;SDS011;1910;49.042;9.028;2023-07-24T11:31:15;14.73;;;8.90;;
3789;SDS011;1910;49.042;9.028;2023-07-24T11:33:44;14.20;;;8.73;;
3789;SDS011;1910;49.042;9.028;2023-07-24T11:36:11;10.83;;;7.67;;
3789;SDS011;1910;49.042;9.028;2023-07-24T11:38:37;12.77;;;6.93;;
3789;SDS011;1910;49.042;9.028;2023-07-24T11:41:04;11.37;;;8.23;;
3789;SDS011;1910;49.042;9.028;2023-07-24T11:43:30;12.03;;;9.00;;
3789;SDS011;1910;49.042;9.028;2023-07-24T11:45:56;11.77;;;7.30;;
3789;SDS011;1910;49.042;9.028;2023-07-24T11:48:22;13.37;;;7.90;;
3789;SDS011;1910;49.042;9.028;2023-07-24T11:50:54;12.43;;;8.10;;
3789;SDS011;1910;49.042;9.028;2023-07-24T11:53:24;11.93;;;7.47;;
3789;SDS011;1910;49.042;9.028;2023-07-24T11:55:55;12.40;;;8.33;;
3789;SDS011;1910;49.042;9.028;2023-07-24T11:58:27;12.67;;;7.80;;
3789;SDS011;1910;49.042;9.028;2023-07-24T12:00:54;9.97;;;6.73;;
3789;SDS011;1910;49.042;9.028;2023-07-24T12:03:27;10.67;;;7.07;;
3789;SDS011;1910;49.042;9.028;2023-07-24T12:05:53;10.83;;;7.20;;
3789;SDS011;1910;49.042;9.028;2023-07-24T12:08:32;10.47;;;7.60;;
3789;SDS011;1910;49.042;9.028;2023-07-24T12:10:59;14.50;;;6.40;;
3789;SDS011;1910;49.042;9.028;2023-07-24T12:13:25;16.13;;;8.20;;
3789;SDS011;1910;49.042;9.028;2023-07-24T12:15:51;12.60;;;8.00;;
3789;SDS011;1910;49.042;9.028;2023-07-24T12:18:16;11.93;;;8.10;;
3789;SDS011;1910;49.042;9.028;2023-07-24T12:20:42;9.20;;;7.20;;
3789;SDS011;1910;49.042;9.028;2023-07-24T12:23:09;12.80;;;8.00;;
3789;SDS011;1910;49.042;9.028;2023-07-24T12:25:34;12.53;;;8.03;;
3789;SDS011;1910;49.042;9.028;2023-07-24T12:28:00;11.60;;;7.57;;
3789;SDS011;1910;49.042;9.028;2023-07-24T12:30:26;12.87;;;7.57;;
3789;SDS011;1910;49.042;9.028;2023-07-24T12:32:51;10.00;;;6.27;;
3789;SDS011;1910;49.042;9.028;2023-07-24T12:35:17;14.43;;;8.03;;
3789;SDS011;1910;49.042;9.028;2023-07-24T12:37:43;11.83;;;7.73;;
3789;SDS011;1910;49.042;9.028;2023-07-24T12:40:10;10.87;;;6.70;;
3789;SDS011;1910;49.042;9.028;2023-07-24T12:42:36;10.73;;;6.80;;
3789;SDS011;1910;49.042;9.028;2023-07-24T12:45:02;12.97;;;7.80;;
3789;SDS011;1910;49.042;9.028;2023-07-24T12:47:29;8.53;;;6.13;;
3789;SDS011;1910;49.042;9.028;2023-07-24T12:49:55;10.27;;;6.90;;
3789;SDS011;1910;49.042;9.028;2023-07-24T12:52:22;9.63;;;6.40;;
3789;SDS011;1910;49.042;9.028;2023-07-24T12:54:49;10.63;;;7.30;;
3789;SDS011;1910;49.042;9.028;2023-07-24T12:57:15;9.90;;;6.40;;
3789;SDS011;1910;49.042;9.028;2023-07-24T12:59:40;11.73;;;7.10;;
3789;SDS011;1910;49.042;9.028;2023-07-24T13:02:06;12.10;;;6.70;;
3789;SDS011;1910;49.042;9.028;2023-07-24T13:04:31;9.70;;;7.13;;
3789;SDS011;1910;49.042;9.028;2023-07-24T13:06:57;9.20;;;6.40;;
3789;SDS011;1910;49.042;9.028;2023-07-24T13:09:24;14.07;;;6.80;;
3789;SDS011;1910;49.042;9.028;2023-07-24T13:11:49;8.33;;;5.77;;
3789;SDS011;1910;49.042;9.028;2023-07-24T13:14:16;10.63;;;6.70;;
3789;SDS011;1910;49.042;9.028;2023-07-24T13:16:42;11.27;;;7.40;;
3789;SDS011;1910;49.042;9.028;2023-07-24T13:19:07;11.97;;;6.43;;
3789;SDS011;1910;49.042;9.028;2023-07-24T13:21:33;11.27;;;6.50;;
3789;SDS011;1910;49.042;9.028;2023-07-24T13:23:58;9.07;;;6.80;;
3789;SDS011;1910;49.042;9.028;2023-07-24T13:26:24;9.77;;;7.03;;
3789;SDS011;1910;49.042;9.028;2023-07-24T13:28:49;9.83;;;7.13;;
3789;SDS011;1910;49.042;9.028;2023-07-24T13:31:16;13.97;;;6.93;;
3789;SDS011;1910;49.042;9.028;2023-07-24T13:33:43;8.97;;;5.70;;
3789;SDS011;1910;49.042;9.028;2023-07-24T13:36:09;7.20;;;5.50;;
3789;SDS011;1910;49.042;9.028;2023-07-24T13:38:34;11.73;;;6.60;;
3789;SDS011;1910;49.042;9.028;2023-07-24T13:41:00;8.97;;;6.23;;
3789;SDS011;1910;49.042;9.028;2023-07-24T13:43:26;7.83;;;5.93;;
3789;SDS011;1910;49.042;9.028;2023-07-24T13:45:52;9.60;;;7.10;;
3789;SDS011;1910;49.042;9.028;2023-07-24T13:48:18;10.97;;;6.10;;
3789;SDS011;1910;49.042;9.028;2023-07-24T13:50:44;10.70;;;6.70;;
3789;SDS011;1910;49.042;9.028;2023-07-24T13:53:09;14.43;;;7.40;;
3789;SDS011;1910;49.042;9.028;2023-07-24T13:55:35;10.27;;;6.03;;
3789;SDS011;1910;49.042;9.028;2023-07-24T13:58:01;9.77;;;6.27;;
3789;SDS011;1910;49.042;9.028;2023-07-24T14:00:26;8.73;;;5.50;;
3789;SDS011;1910;49.042;9.028;2023-07-24T14:02:52;10.63;;;6.33;;
3789;SDS011;1910;49.042;9.028;2023-07-24T14:05:18;10.60;;;5.93;;
3789;SDS011;1910;49.042;9.028;2023-07-24T14:07:43;8.63;;;5.37;;
3789;SDS011;1910;49.042;9.028;2023-07-24T14:10:09;12.80;;;6.33;;
3789;SDS011;1910;49.042;9.028;2023-07-24T14:12:35;9.70;;;4.80;;
3789;SDS011;1910;49.042;9.028;2023-07-24T14:15:01;8.00;;;5.83;;
3789;SDS011;1910;49.042;9.028;2023-07-24T14:17:26;7.60;;;5.73;;
3789;SDS011;1910;49.042;9.028;2023-07-24T14:19:53;8.70;;;5.40;;
3789;SDS011;1910;49.042;9.028;2023-07-24T14:22:18;7.20;;;5.60;;
3789;SDS011;1910;49.042;9.028;2023-07-24T14:24:44;6.43;;;4.60;;
3789;SDS011;1910;49.042;9.028;2023-07-24T14:27:11;8.70;;;5.73;;
3789;SDS011;1910;49.042;9.028;2023-07-24T14:29:36;6.00;;;4.03;;
3789;SDS011;1910;49.042;9.028;2023-07-24T14:32:02;11.00;;;6.13;;
3789;SDS011;1910;49.042;9.028;2023-07-24T14:34:27;11.73;;;6.33;;
3789;SDS011;1910;49.042;9.028;2023-07-24T14:36:53;8.30;;;5.47;;
3789;SDS011;1910;49.042;9.028;2023-07-24T14:39:18;9.43;;;5.63;;
3789;SDS011;1910;49.042;9.028;2023-07-24T14:41:44;7.57;;;6.07;;
3789;SDS011;1910;49.042;9.028;2023-07-24T14:44:10;8.43;;;5.60;;
3789;SDS011;1910;49.042;9.028;2023-07-24T14:46:35;7.87;;;5.40;;
3789;SDS011;1910;49.042;9.028;2023-07-24T14:49:01;8.73;;;5.40;;
3789;SDS011;1910;49.042;9.028;2023-07-24T14:51:27;9.07;;;5.90;;
3789;SDS011;1910;49.042;9.028;2023-07-24T14:53:52;8.03;;;4.67;;
3789;SDS011;1910;49.042;9.028;2023-07-24T14:56:18;9.00;;;5.43;;
3789;SDS011;1910;49.042;9.028;2023-07-24T14:58:44;8.33;;;6.10;;
3789;SDS011;1910;49.042;9.028;2023-07-24T15:01:10;8.70;;;6.47;;